sensor_id;sensor_type;location;lat;lon;timestamp;P1;durP1;ratioP1;P2;durP2;ratioP2
42066;SDS011;27734;47.028;28.820;2022-12-11T00:00:44;70.60;;;28.93;;
42066;SDS011;27734;47.028;28.820;2022-12-11T00:03:35;81.97;;;26.93;;
42066;SDS011;27734;47.028;28.820;2022-12-11T00:06:07;78.47;;;26.93;;
42066;SDS011;27734;47.028;28.820;2022-12-11T00:08:40;65.10;;;26.90;;
42066;SDS011;27734;47.028;28.820;2022-12-11T00:11:13;72.90;;;26.90;;
42066;SDS011;27734;47.028;28.820;2022-12-11T00:13:44;62.17;;;29.40;;
42066;SDS011;27734;47.028;28.820;2022-12-11T00:16:15;74.80;;;28.40;;
42066;SDS011;27734;47.028;28.820;2022-12-11T00:18:47;69.83;;;27.20;;
42066;SDS011;27734;47.028;28.820;2022-12-11T00:21:18;63.93;;;28.03;;
42066;SDS011;27734;47.028;28.820;2022-12-11T00:23:49;56.93;;;28.83;;
42066;SDS011;27734;47.028;28.820;2022-12-11T00:26:21;61.10;;;27.60;;
42066;SDS011;27734;47.028;28.820;2022-12-11T00:28:53;54.23;;;27.77;;
42066;SDS011;27734;47.028;28.820;2022-12-11T00:31:25;67.43;;;27.63;;
42066;SDS011;27734;47.028;28.820;2022-12-11T00:33:56;70.40;;;28.20;;
42066;SDS011;27734;47.028;28.820;2022-12-11T00:36:29;73.70;;;29.20;;
42066;SDS011;27734;47.028;28.820;2022-12-11T00:39:01;69.53;;;27.70;;
42066;SDS011;27734;47.028;28.820;2022-12-11T00:41:33;63.68;;;29.52;;
42066;SDS011;27734;47.028;28.820;2022-12-11T00:44:04;85.10;;;30.90;;
42066;SDS011;27734;47.028;28.820;2022-12-11T00:46:36;62.63;;;30.30;;
42066;SDS011;27734;47.028;28.820;2022-12-11T00:49:07;62.67;;;30.80;;
42066;SDS011;27734;47.028;28.820;2022-12-11T00:51:38;63.47;;;31.23;;
42066;SDS011;27734;47.028;28.820;2022-12-11T00:54:09;61.33;;;29.90;;
42066;SDS011;27734;47.028;28.820;2022-12-11T00:56:40;69.90;;;31.23;;
42066;SDS011;27734;47.028;28.820;2022-12-11T00:59:11;65.37;;;31.77;;
42066;SDS011;27734;47.028;28.820;2022-12-11T01:01:43;80.90;;;30.83;;
42066;SDS011;27734;47.028;28.820;2022-12-11T01:04:14;67.03;;;29.13;;
42066;SDS011;27734;47.028;28.820;2022-12-11T01:06:45;70.33;;;30.57;;
42066;SDS011;27734;47.028;28.820;2022-12-11T01:09:16;73.13;;;28.70;;
42066;SDS011;27734;47.028;28.820;2022-12-11T01:12:17;69.00;;;28.30;;
42066;SDS011;27734;47.028;28.820;2022-12-11T01:14:48;63.07;;;27.73;;
42066;SDS011;27734;47.028;28.820;2022-12-11T01:17:19;67.20;;;26.90;;
42066;SDS011;27734;47.028;28.820;2022-12-11T01:19:50;51.10;;;26.17;;
42066;SDS011;27734;47.028;28.820;2022-12-11T01:22:23;60.13;;;26.23;;
42066;SDS011;27734;47.028;28.820;2022-12-11T01:24:54;76.20;;;26.60;;
42066;SDS011;27734;47.028;28.820;2022-12-11T01:27:26;60.03;;;26.73;;
42066;SDS011;27734;47.028;28.820;2022-12-11T01:29:57;64.40;;;24.97;;
42066;SDS011;27734;47.028;28.820;2022-12-11T01:32:28;63.17;;;26.40;;
42066;SDS011;27734;47.028;28.820;2022-12-11T01:35:03;59.97;;;24.67;;
42066;SDS011;27734;47.028;28.820;2022-12-11T01:37:35;76.87;;;27.63;;
42066;SDS011;27734;47.028;28.820;2022-12-11T01:40:08;63.03;;;26.73;;
42066;SDS011;27734;47.028;28.820;2022-12-11T01:42:42;56.17;;;26.33;;
42066;SDS011;27734;47.028;28.820;2022-12-11T01:48:05;81.03;;;27.43;;
42066;SDS011;27734;47.028;28.820;2022-12-11T01:50:38;82.57;;;28.93;;
42066;SDS011;27734;47.028;28.820;2022-12-11T01:53:14;99.20;;;29.70;;
42066;SDS011;27734;47.028;28.820;2022-12-11T01:55:49;75.00;;;28.15;;
42066;SDS011;27734;47.028;28.820;2022-12-11T01:58:23;94.03;;;29.53;;
42066;SDS011;27734;47.028;28.820;2022-12-11T02:00:59;73.50;;;29.33;;
42066;SDS011;27734;47.028;28.820;2022-12-11T02:03:31;70.50;;;30.50;;
42066;SDS011;27734;47.028;28.820;2022-12-11T02:06:02;73.70;;;29.17;;
42066;SDS011;27734;47.028;28.820;2022-12-11T02:08:33;82.20;;;31.53;;
42066;SDS011;27734;47.028;28.820;2022-12-11T02:11:07;81.87;;;30.10;;
42066;SDS011;27734;47.028;28.820;2022-12-11T02:13:48;67.43;;;31.73;;
42066;SDS011;27734;47.028;28.820;2022-12-11T02:16:27;82.33;;;32.67;;
42066;SDS011;27734;47.028;28.820;2022-12-11T02:19:04;67.97;;;32.63;;
42066;SDS011;27734;47.028;28.820;2022-12-11T02:24:24;65.33;;;32.30;;
42066;SDS011;27734;47.028;28.820;2022-12-11T02:27:15;60.57;;;31.87;;
42066;SDS011;27734;47.028;28.820;2022-12-11T02:30:00;75.57;;;32.53;;
42066;SDS011;27734;47.028;28.820;2022-12-11T02:32:34;65.77;;;29.90;;
42066;SDS011;27734;47.028;28.820;2022-12-11T02:35:12;59.13;;;28.17;;
42066;SDS011;27734;47.028;28.820;2022-12-11T02:37:48;60.35;;;25.80;;
42066;SDS011;27734;47.028;28.820;2022-12-11T02:40:25;66.73;;;23.70;;
42066;SDS011;27734;47.028;28.820;2022-12-11T02:43:00;60.73;;;22.70;;
42066;SDS011;27734;47.028;28.820;2022-12-11T02:45:34;60.53;;;21.03;;
42066;SDS011;27734;47.028;28.820;2022-12-11T02:48:09;72.53;;;20.47;;
42066;SDS011;27734;47.028;28.820;2022-12-11T02:53:14;63.60;;;18.73;;
42066;SDS011;27734;47.028;28.820;2022-12-11T02:55:51;66.20;;;18.87;;
42066;SDS011;27734;47.028;28.820;2022-12-11T02:58:28;41.17;;;16.60;;
42066;SDS011;27734;47.028;28.820;2022-12-11T03:01:01;72.47;;;17.47;;
42066;SDS011;27734;47.028;28.820;2022-12-11T03:03:32;56.37;;;17.70;;
42066;SDS011;27734;47.028;28.820;2022-12-11T03:06:04;64.47;;;17.57;;
42066;SDS011;27734;47.028;28.820;2022-12-11T03:08:37;67.50;;;17.60;;
42066;SDS011;27734;47.028;28.820;2022-12-11T03:11:10;47.43;;;18.30;;
42066;SDS011;27734;47.028;28.820;2022-12-11T03:13:41;69.47;;;17.35;;
42066;SDS011;27734;47.028;28.820;2022-12-11T03:16:14;56.50;;;17.60;;
42066;SDS011;27734;47.028;28.820;2022-12-11T03:18:57;57.07;;;18.30;;
42066;SDS011;27734;47.028;28.820;2022-12-11T03:21:37;66.47;;;18.43;;
42066;SDS011;27734;47.028;28.820;2022-12-11T03:24:14;54.03;;;18.17;;
42066;SDS011;27734;47.028;28.820;2022-12-11T03:26:50;66.70;;;17.97;;
42066;SDS011;27734;47.028;28.820;2022-12-11T03:29:28;69.83;;;17.83;;
42066;SDS011;27734;47.028;28.820;2022-12-11T03:32:05;62.83;;;19.30;;
42066;SDS011;27734;47.028;28.820;2022-12-11T03:34:42;65.47;;;18.43;;
42066;SDS011;27734;47.028;28.820;2022-12-11T03:37:19;57.47;;;18.17;;
42066;SDS011;27734;47.028;28.820;2022-12-11T03:39:54;42.50;;;19.30;;
42066;SDS011;27734;47.028;28.820;2022-12-11T03:42:30;69.37;;;17.33;;
42066;SDS011;27734;47.028;28.820;2022-12-11T03:45:02;58.43;;;17.17;;
42066;SDS011;27734;47.028;28.820;2022-12-11T03:47:35;64.03;;;18.45;;
42066;SDS011;27734;47.028;28.820;2022-12-11T03:50:09;60.87;;;18.37;;
42066;SDS011;27734;47.028;28.820;2022-12-11T03:55:16;55.67;;;16.83;;
42066;SDS011;27734;47.028;28.820;2022-12-11T04:00:19;56.50;;;18.30;;
42066;SDS011;27734;47.028;28.820;2022-12-11T04:02:51;61.17;;;18.03;;
42066;SDS011;27734;47.028;28.820;2022-12-11T04:05:41;53.90;;;17.63;;
42066;SDS011;27734;47.028;28.820;2022-12-11T04:08:13;55.57;;;17.90;;
42066;SDS011;27734;47.028;28.820;2022-12-11T04:10:45;59.07;;;18.33;;
42066;SDS011;27734;47.028;28.820;2022-12-11T04:13:37;61.43;;;18.37;;
42066;SDS011;27734;47.028;28.820;2022-12-11T04:16:09;87.43;;;17.67;;
42066;SDS011;27734;47.028;28.820;2022-12-11T04:18:40;48.90;;;16.67;;
42066;SDS011;27734;47.028;28.820;2022-12-11T04:21:29;74.00;;;17.53;;
42066;SDS011;27734;47.028;28.820;2022-12-11T04:24:29;63.90;;;17.55;;
42066;SDS011;27734;47.028;28.820;2022-12-11T04:27:01;77.00;;;17.57;;
42066;SDS011;27734;47.028;28.820;2022-12-11T04:29:32;57.70;;;17.10;;
42066;SDS011;27734;47.028;28.820;2022-12-11T04:32:03;63.23;;;17.03;;
42066;SDS011;27734;47.028;28.820;2022-12-11T04:34:35;77.43;;;17.57;;
42066;SDS011;27734;47.028;28.820;2022-12-11T04:37:07;80.33;;;19.00;;
42066;SDS011;27734;47.028;28.820;2022-12-11T04:39:38;73.73;;;17.03;;
42066;SDS011;27734;47.028;28.820;2022-12-11T04:42:10;66.17;;;17.70;;
42066;SDS011;27734;47.028;28.820;2022-12-11T04:44:41;66.70;;;16.17;;
42066;SDS011;27734;47.028;28.820;2022-12-11T04:47:12;61.23;;;16.93;;
42066;SDS011;27734;47.028;28.820;2022-12-11T04:49:43;40.30;;;15.37;;
42066;SDS011;27734;47.028;28.820;2022-12-11T04:52:14;41.93;;;17.10;;
42066;SDS011;27734;47.028;28.820;2022-12-11T04:54:47;50.90;;;15.35;;
42066;SDS011;27734;47.028;28.820;2022-12-11T04:57:18;46.07;;;16.67;;
42066;SDS011;27734;47.028;28.820;2022-12-11T04:59:49;66.00;;;17.17;;
42066;SDS011;27734;47.028;28.820;2022-12-11T05:02:20;39.87;;;16.33;;
42066;SDS011;27734;47.028;28.820;2022-12-11T05:04:52;51.40;;;16.17;;
42066;SDS011;27734;47.028;28.820;2022-12-11T05:07:23;43.33;;;15.50;;
42066;SDS011;27734;47.028;28.820;2022-12-11T05:09:54;63.57;;;16.50;;
42066;SDS011;27734;47.028;28.820;2022-12-11T05:12:25;54.17;;;16.97;;
42066;SDS011;27734;47.028;28.820;2022-12-11T05:14:56;46.85;;;16.95;;
42066;SDS011;27734;47.028;28.820;2022-12-11T05:17:28;57.13;;;16.93;;
42066;SDS011;27734;47.028;28.820;2022-12-11T05:19:59;61.27;;;16.83;;
42066;SDS011;27734;47.028;28.820;2022-12-11T05:22:30;58.77;;;16.53;;
42066;SDS011;27734;47.028;28.820;2022-12-11T05:25:01;66.23;;;17.40;;
42066;SDS011;27734;47.028;28.820;2022-12-11T05:27:33;65.63;;;16.67;;
42066;SDS011;27734;47.028;28.820;2022-12-11T05:30:05;64.33;;;18.07;;
42066;SDS011;27734;47.028;28.820;2022-12-11T05:32:38;69.87;;;18.57;;
42066;SDS011;27734;47.028;28.820;2022-12-11T05:35:10;60.83;;;17.57;;
42066;SDS011;27734;47.028;28.820;2022-12-11T05:37:41;52.13;;;18.00;;
42066;SDS011;27734;47.028;28.820;2022-12-11T05:40:12;65.23;;;18.30;;
42066;SDS011;27734;47.028;28.820;2022-12-11T05:42:43;50.73;;;17.60;;
42066;SDS011;27734;47.028;28.820;2022-12-11T05:45:14;59.97;;;19.03;;
42066;SDS011;27734;47.028;28.820;2022-12-11T05:47:46;66.07;;;19.47;;
42066;SDS011;27734;47.028;28.820;2022-12-11T05:50:17;54.30;;;19.13;;
42066;SDS011;27734;47.028;28.820;2022-12-11T05:52:48;54.60;;;20.00;;
42066;SDS011;27734;47.028;28.820;2022-12-11T05:55:19;44.25;;;20.35;;
42066;SDS011;27734;47.028;28.820;2022-12-11T05:57:50;55.50;;;21.13;;
42066;SDS011;27734;47.028;28.820;2022-12-11T06:00:21;38.73;;;21.70;;
42066;SDS011;27734;47.028;28.820;2022-12-11T06:02:52;52.45;;;22.70;;
42066;SDS011;27734;47.028;28.820;2022-12-11T06:05:23;48.60;;;22.10;;
42066;SDS011;27734;47.028;28.820;2022-12-11T06:07:54;50.37;;;22.83;;
42066;SDS011;27734;47.028;28.820;2022-12-11T06:10:26;45.50;;;23.23;;
42066;SDS011;27734;47.028;28.820;2022-12-11T06:12:57;44.20;;;23.20;;
42066;SDS011;27734;47.028;28.820;2022-12-11T06:15:28;44.97;;;23.50;;
42066;SDS011;27734;47.028;28.820;2022-12-11T06:18:00;48.93;;;24.03;;
42066;SDS011;27734;47.028;28.820;2022-12-11T06:20:32;46.45;;;24.00;;
42066;SDS011;27734;47.028;28.820;2022-12-11T06:23:03;46.87;;;25.53;;
42066;SDS011;27734;47.028;28.820;2022-12-11T06:25:36;54.50;;;24.93;;
42066;SDS011;27734;47.028;28.820;2022-12-11T06:28:08;52.50;;;25.40;;
42066;SDS011;27734;47.028;28.820;2022-12-11T06:30:39;47.73;;;24.57;;
42066;SDS011;27734;47.028;28.820;2022-12-11T06:33:10;47.60;;;24.20;;
42066;SDS011;27734;47.028;28.820;2022-12-11T06:35:41;54.60;;;25.10;;
42066;SDS011;27734;47.028;28.820;2022-12-11T06:38:13;45.10;;;25.50;;
42066;SDS011;27734;47.028;28.820;2022-12-11T06:40:44;51.73;;;25.20;;
42066;SDS011;27734;47.028;28.820;2022-12-11T06:43:22;47.63;;;24.60;;
42066;SDS011;27734;47.028;28.820;2022-12-11T06:45:54;51.40;;;24.93;;
42066;SDS011;27734;47.028;28.820;2022-12-11T06:48:26;44.77;;;24.13;;
42066;SDS011;27734;47.028;28.820;2022-12-11T06:50:58;45.17;;;24.40;;
42066;SDS011;27734;47.028;28.820;2022-12-11T06:53:32;42.83;;;23.73;;
42066;SDS011;27734;47.028;28.820;2022-12-11T06:56:04;49.23;;;24.50;;
42066;SDS011;27734;47.028;28.820;2022-12-11T06:58:37;55.25;;;25.85;;
42066;SDS011;27734;47.028;28.820;2022-12-11T07:01:14;52.27;;;26.60;;
42066;SDS011;27734;47.028;28.820;2022-12-11T07:03:47;57.47;;;27.43;;
42066;SDS011;27734;47.028;28.820;2022-12-11T07:06:21;55.08;;;27.98;;
42066;SDS011;27734;47.028;28.820;2022-12-11T07:08:52;50.77;;;26.43;;
42066;SDS011;27734;47.028;28.820;2022-12-11T07:11:24;51.23;;;28.67;;
42066;SDS011;27734;47.028;28.820;2022-12-11T07:13:56;50.83;;;24.83;;
42066;SDS011;27734;47.028;28.820;2022-12-11T07:16:28;59.97;;;28.13;;
42066;SDS011;27734;47.028;28.820;2022-12-11T07:18:59;49.13;;;27.77;;
42066;SDS011;27734;47.028;28.820;2022-12-11T07:21:30;53.80;;;28.90;;
42066;SDS011;27734;47.028;28.820;2022-12-11T07:24:01;59.77;;;29.53;;
42066;SDS011;27734;47.028;28.820;2022-12-11T07:26:34;54.23;;;28.83;;
42066;SDS011;27734;47.028;28.820;2022-12-11T07:29:05;53.60;;;29.10;;
42066;SDS011;27734;47.028;28.820;2022-12-11T07:31:36;54.67;;;28.80;;
42066;SDS011;27734;47.028;28.820;2022-12-11T07:34:10;57.00;;;28.37;;
42066;SDS011;27734;47.028;28.820;2022-12-11T07:36:42;54.23;;;29.17;;
42066;SDS011;27734;47.028;28.820;2022-12-11T07:39:13;59.27;;;29.70;;
42066;SDS011;27734;47.028;28.820;2022-12-11T07:41:44;56.60;;;28.93;;
42066;SDS011;27734;47.028;28.820;2022-12-11T07:44:18;54.90;;;28.32;;
42066;SDS011;27734;47.028;28.820;2022-12-11T07:46:49;51.63;;;27.97;;
42066;SDS011;27734;47.028;28.820;2022-12-11T07:49:20;50.83;;;28.37;;
42066;SDS011;27734;47.028;28.820;2022-12-11T07:51:51;47.63;;;26.83;;
42066;SDS011;27734;47.028;28.820;2022-12-11T07:54:22;51.33;;;26.37;;
42066;SDS011;27734;47.028;28.820;2022-12-11T07:56:53;50.50;;;26.65;;
42066;SDS011;27734;47.028;28.820;2022-12-11T07:59:24;49.73;;;26.70;;
42066;SDS011;27734;47.028;28.820;2022-12-11T08:01:56;47.80;;;26.67;;
42066;SDS011;27734;47.028;28.820;2022-12-11T08:04:27;55.50;;;27.27;;
42066;SDS011;27734;47.028;28.820;2022-12-11T08:06:58;43.07;;;22.93;;
42066;SDS011;27734;47.028;28.820;2022-12-11T08:09:29;48.65;;;25.55;;
42066;SDS011;27734;47.028;28.820;2022-12-11T08:12:00;50.43;;;24.67;;
42066;SDS011;27734;47.028;28.820;2022-12-11T08:14:32;49.53;;;24.00;;
42066;SDS011;27734;47.028;28.820;2022-12-11T08:17:03;40.37;;;23.73;;
42066;SDS011;27734;47.028;28.820;2022-12-11T08:19:34;47.57;;;23.60;;
42066;SDS011;27734;47.028;28.820;2022-12-11T08:22:05;45.67;;;23.27;;
42066;SDS011;27734;47.028;28.820;2022-12-11T08:24:36;44.40;;;22.37;;
42066;SDS011;27734;47.028;28.820;2022-12-11T08:27:07;42.50;;;21.83;;
42066;SDS011;27734;47.028;28.820;2022-12-11T08:29:39;46.97;;;23.10;;
42066;SDS011;27734;47.028;28.820;2022-12-11T08:32:10;44.03;;;21.93;;
42066;SDS011;27734;47.028;28.820;2022-12-11T08:34:43;44.65;;;23.07;;
42066;SDS011;27734;47.028;28.820;2022-12-11T08:37:15;44.40;;;21.27;;
42066;SDS011;27734;47.028;28.820;2022-12-11T08:39:46;37.93;;;20.57;;
42066;SDS011;27734;47.028;28.820;2022-12-11T08:42:17;40.67;;;21.50;;
42066;SDS011;27734;47.028;28.820;2022-12-11T08:44:48;43.53;;;22.50;;
42066;SDS011;27734;47.028;28.820;2022-12-11T08:47:21;41.77;;;20.20;;
42066;SDS011;27734;47.028;28.820;2022-12-11T08:49:53;39.43;;;20.97;;
42066;SDS011;27734;47.028;28.820;2022-12-11T08:52:24;46.63;;;20.77;;
42066;SDS011;27734;47.028;28.820;2022-12-11T08:54:58;41.65;;;21.15;;
42066;SDS011;27734;47.028;28.820;2022-12-11T08:57:29;43.07;;;20.83;;
42066;SDS011;27734;47.028;28.820;2022-12-11T09:00:00;42.33;;;20.97;;
42066;SDS011;27734;47.028;28.820;2022-12-11T09:02:32;38.57;;;20.23;;
42066;SDS011;27734;47.028;28.820;2022-12-11T09:05:03;37.13;;;20.10;;
42066;SDS011;27734;47.028;28.820;2022-12-11T09:07:36;37.23;;;20.37;;
42066;SDS011;27734;47.028;28.820;2022-12-11T09:10:08;44.03;;;20.17;;
42066;SDS011;27734;47.028;28.820;2022-12-11T09:12:39;40.17;;;20.10;;
42066;SDS011;27734;47.028;28.820;2022-12-11T09:15:11;45.80;;;20.10;;
42066;SDS011;27734;47.028;28.820;2022-12-11T09:17:42;39.90;;;20.57;;
42066;SDS011;27734;47.028;28.820;2022-12-11T09:20:13;35.03;;;17.70;;
42066;SDS011;27734;47.028;28.820;2022-12-11T09:22:44;41.57;;;19.33;;
42066;SDS011;27734;47.028;28.820;2022-12-11T09:25:16;39.67;;;19.40;;
42066;SDS011;27734;47.028;28.820;2022-12-11T09:27:47;41.67;;;19.63;;
42066;SDS011;27734;47.028;28.820;2022-12-11T09:30:18;36.20;;;19.83;;
42066;SDS011;27734;47.028;28.820;2022-12-11T09:32:49;36.23;;;19.20;;
42066;SDS011;27734;47.028;28.820;2022-12-11T09:35:21;35.40;;;17.33;;
42066;SDS011;27734;47.028;28.820;2022-12-11T09:37:52;36.27;;;18.53;;
42066;SDS011;27734;47.028;28.820;2022-12-11T09:40:24;37.57;;;17.37;;
42066;SDS011;27734;47.028;28.820;2022-12-11T09:42:56;39.40;;;17.30;;
42066;SDS011;27734;47.028;28.820;2022-12-11T09:45:33;34.90;;;17.10;;
42066;SDS011;27734;47.028;28.820;2022-12-11T09:48:04;36.67;;;17.13;;
42066;SDS011;27734;47.028;28.820;2022-12-11T09:50:38;36.83;;;17.92;;
42066;SDS011;27734;47.028;28.820;2022-12-11T09:53:11;36.27;;;17.40;;
42066;SDS011;27734;47.028;28.820;2022-12-11T09:55:53;36.45;;;17.40;;
42066;SDS011;27734;47.028;28.820;2022-12-11T09:58:30;41.10;;;17.80;;
42066;SDS011;27734;47.028;28.820;2022-12-11T10:01:08;39.23;;;17.80;;
42066;SDS011;27734;47.028;28.820;2022-12-11T10:03:50;39.33;;;17.67;;
42066;SDS011;27734;47.028;28.820;2022-12-11T10:06:42;36.57;;;16.67;;
42066;SDS011;27734;47.028;28.820;2022-12-11T10:09:21;36.03;;;16.97;;
42066;SDS011;27734;47.028;28.820;2022-12-11T10:12:03;40.70;;;17.00;;
42066;SDS011;27734;47.028;28.820;2022-12-11T10:14:50;38.07;;;17.20;;
42066;SDS011;27734;47.028;28.820;2022-12-11T10:17:29;35.80;;;16.70;;
42066;SDS011;27734;47.028;28.820;2022-12-11T10:20:04;36.50;;;16.90;;
42066;SDS011;27734;47.028;28.820;2022-12-11T10:22:47;38.70;;;16.87;;
42066;SDS011;27734;47.028;28.820;2022-12-11T10:25:21;34.73;;;15.97;;
42066;SDS011;27734;47.028;28.820;2022-12-11T10:27:56;35.33;;;15.53;;
42066;SDS011;27734;47.028;28.820;2022-12-11T10:30:28;35.03;;;16.13;;
42066;SDS011;27734;47.028;28.820;2022-12-11T10:33:07;35.63;;;15.73;;
42066;SDS011;27734;47.028;28.820;2022-12-11T10:35:46;37.67;;;16.20;;
42066;SDS011;27734;47.028;28.820;2022-12-11T10:38:25;36.53;;;15.50;;
42066;SDS011;27734;47.028;28.820;2022-12-11T10:40:59;35.30;;;15.70;;
42066;SDS011;27734;47.028;28.820;2022-12-11T10:43:34;37.87;;;15.17;;
42066;SDS011;27734;47.028;28.820;2022-12-11T10:46:12;33.33;;;15.90;;
42066;SDS011;27734;47.028;28.820;2022-12-11T10:48:46;32.35;;;14.85;;
42066;SDS011;27734;47.028;28.820;2022-12-11T10:51:21;32.73;;;14.47;;
42066;SDS011;27734;47.028;28.820;2022-12-11T10:54:03;33.67;;;14.60;;
42066;SDS011;27734;47.028;28.820;2022-12-11T10:56:46;34.10;;;13.93;;
42066;SDS011;27734;47.028;28.820;2022-12-11T10:59:20;33.35;;;14.60;;
42066;SDS011;27734;47.028;28.820;2022-12-11T11:01:58;30.95;;;14.60;;
42066;SDS011;27734;47.028;28.820;2022-12-11T11:04:32;32.80;;;14.67;;
42066;SDS011;27734;47.028;28.820;2022-12-11T11:07:12;34.53;;;15.17;;
42066;SDS011;27734;47.028;28.820;2022-12-11T11:09:47;34.20;;;14.63;;
42066;SDS011;27734;47.028;28.820;2022-12-11T11:12:20;33.23;;;13.97;;
42066;SDS011;27734;47.028;28.820;2022-12-11T11:15:01;36.03;;;14.80;;
42066;SDS011;27734;47.028;28.820;2022-12-11T11:17:39;33.23;;;14.97;;
42066;SDS011;27734;47.028;28.820;2022-12-11T11:20:15;36.03;;;15.03;;
42066;SDS011;27734;47.028;28.820;2022-12-11T11:22:49;35.73;;;14.67;;
42066;SDS011;27734;47.028;28.820;2022-12-11T11:25:23;37.10;;;14.10;;
42066;SDS011;27734;47.028;28.820;2022-12-11T11:27:56;38.55;;;14.95;;
42066;SDS011;27734;47.028;28.820;2022-12-11T11:30:29;34.20;;;14.63;;
42066;SDS011;27734;47.028;28.820;2022-12-11T11:33:03;29.37;;;13.93;;
42066;SDS011;27734;47.028;28.820;2022-12-11T11:35:49;39.70;;;14.73;;
42066;SDS011;27734;47.028;28.820;2022-12-11T11:38:22;39.23;;;14.60;;
42066;SDS011;27734;47.028;28.820;2022-12-11T11:40:57;37.27;;;15.10;;
42066;SDS011;27734;47.028;28.820;2022-12-11T11:43:35;30.37;;;14.67;;
42066;SDS011;27734;47.028;28.820;2022-12-11T11:46:13;32.10;;;14.10;;
42066;SDS011;27734;47.028;28.820;2022-12-11T11:48:51;33.90;;;14.30;;
42066;SDS011;27734;47.028;28.820;2022-12-11T11:51:30;37.80;;;14.30;;
42066;SDS011;27734;47.028;28.820;2022-12-11T11:54:06;35.15;;;14.63;;
42066;SDS011;27734;47.028;28.820;2022-12-11T11:56:45;29.50;;;13.35;;
42066;SDS011;27734;47.028;28.820;2022-12-11T11:59:19;28.63;;;13.13;;
42066;SDS011;27734;47.028;28.820;2022-12-11T12:01:56;32.83;;;13.93;;
42066;SDS011;27734;47.028;28.820;2022-12-11T12:04:29;31.43;;;14.43;;
42066;SDS011;27734;47.028;28.820;2022-12-11T12:07:15;33.50;;;14.07;;
42066;SDS011;27734;47.028;28.820;2022-12-11T12:10:02;30.10;;;13.83;;
42066;SDS011;27734;47.028;28.820;2022-12-11T12:12:45;35.53;;;15.40;;
42066;SDS011;27734;47.028;28.820;2022-12-11T12:15:28;28.93;;;14.50;;
42066;SDS011;27734;47.028;28.820;2022-12-11T12:18:10;34.77;;;15.40;;
42066;SDS011;27734;47.028;28.820;2022-12-11T12:20:50;33.83;;;15.10;;
42066;SDS011;27734;47.028;28.820;2022-12-11T12:23:35;33.30;;;13.77;;
42066;SDS011;27734;47.028;28.820;2022-12-11T12:26:22;36.23;;;13.83;;
42066;SDS011;27734;47.028;28.820;2022-12-11T12:29:00;34.80;;;15.40;;
42066;SDS011;27734;47.028;28.820;2022-12-11T12:31:47;33.13;;;14.00;;
42066;SDS011;27734;47.028;28.820;2022-12-11T12:34:27;31.20;;;14.57;;
42066;SDS011;27734;47.028;28.820;2022-12-11T12:37:12;33.90;;;13.77;;
42066;SDS011;27734;47.028;28.820;2022-12-11T12:39:52;31.10;;;14.10;;
42066;SDS011;27734;47.028;28.820;2022-12-11T12:42:33;31.60;;;14.13;;
42066;SDS011;27734;47.028;28.820;2022-12-11T12:45:15;38.47;;;14.67;;
42066;SDS011;27734;47.028;28.820;2022-12-11T12:47:54;34.17;;;15.13;;
42066;SDS011;27734;47.028;28.820;2022-12-11T12:50:25;37.40;;;14.67;;
42066;SDS011;27734;47.028;28.820;2022-12-11T12:53:05;34.90;;;15.40;;
42066;SDS011;27734;47.028;28.820;2022-12-11T12:55:41;30.93;;;14.10;;
42066;SDS011;27734;47.028;28.820;2022-12-11T12:58:24;31.97;;;13.67;;
42066;SDS011;27734;47.028;28.820;2022-12-11T13:01:06;32.53;;;13.10;;
42066;SDS011;27734;47.028;28.820;2022-12-11T13:03:50;31.77;;;12.40;;
42066;SDS011;27734;47.028;28.820;2022-12-11T13:06:28;32.70;;;13.10;;
42066;SDS011;27734;47.028;28.820;2022-12-11T13:09:12;37.10;;;14.23;;
42066;SDS011;27734;47.028;28.820;2022-12-11T13:11:46;32.67;;;13.73;;
42066;SDS011;27734;47.028;28.820;2022-12-11T13:14:23;36.03;;;14.03;;
42066;SDS011;27734;47.028;28.820;2022-12-11T13:17:06;31.13;;;13.47;;
42066;SDS011;27734;47.028;28.820;2022-12-11T13:20:05;40.30;;;14.17;;
42066;SDS011;27734;47.028;28.820;2022-12-11T13:25:47;31.97;;;14.90;;
42066;SDS011;27734;47.028;28.820;2022-12-11T13:28:22;35.33;;;13.63;;
42066;SDS011;27734;47.028;28.820;2022-12-11T13:31:02;32.80;;;13.87;;
42066;SDS011;27734;47.028;28.820;2022-12-11T13:33:51;29.33;;;12.73;;
42066;SDS011;27734;47.028;28.820;2022-12-11T13:39:03;32.95;;;13.65;;
42066;SDS011;27734;47.028;28.820;2022-12-11T13:41:38;28.80;;;13.20;;
42066;SDS011;27734;47.028;28.820;2022-12-11T13:44:13;28.30;;;13.30;;
42066;SDS011;27734;47.028;28.820;2022-12-11T13:46:48;30.67;;;13.80;;
42066;SDS011;27734;47.028;28.820;2022-12-11T13:49:23;35.83;;;15.60;;
42066;SDS011;27734;47.028;28.820;2022-12-11T13:51:57;29.93;;;13.20;;
42066;SDS011;27734;47.028;28.820;2022-12-11T13:54:29;33.77;;;14.00;;
42066;SDS011;27734;47.028;28.820;2022-12-11T13:57:13;31.93;;;14.37;;
42066;SDS011;27734;47.028;28.820;2022-12-11T13:59:48;30.50;;;13.93;;
42066;SDS011;27734;47.028;28.820;2022-12-11T14:02:21;34.07;;;13.73;;
42066;SDS011;27734;47.028;28.820;2022-12-11T14:04:57;34.07;;;14.87;;
42066;SDS011;27734;47.028;28.820;2022-12-11T14:07:31;32.17;;;14.13;;
42066;SDS011;27734;47.028;28.820;2022-12-11T14:10:06;33.77;;;14.17;;
42066;SDS011;27734;47.028;28.820;2022-12-11T14:12:44;36.77;;;15.60;;
42066;SDS011;27734;47.028;28.820;2022-12-11T14:15:21;35.03;;;14.17;;
42066;SDS011;27734;47.028;28.820;2022-12-11T14:17:54;34.70;;;14.53;;
42066;SDS011;27734;47.028;28.820;2022-12-11T14:20:28;36.37;;;15.00;;
42066;SDS011;27734;47.028;28.820;2022-12-11T14:23:07;33.23;;;15.27;;
42066;SDS011;27734;47.028;28.820;2022-12-11T14:25:52;30.75;;;15.05;;
42066;SDS011;27734;47.028;28.820;2022-12-11T14:28:25;36.27;;;14.93;;
42066;SDS011;27734;47.028;28.820;2022-12-11T14:30:58;37.55;;;14.95;;
42066;SDS011;27734;47.028;28.820;2022-12-11T14:33:33;33.83;;;15.75;;
42066;SDS011;27734;47.028;28.820;2022-12-11T14:36:07;33.57;;;16.33;;
42066;SDS011;27734;47.028;28.820;2022-12-11T14:38:41;35.33;;;17.33;;
42066;SDS011;27734;47.028;28.820;2022-12-11T14:41:16;39.77;;;17.30;;
42066;SDS011;27734;47.028;28.820;2022-12-11T14:43:52;37.43;;;16.20;;
42066;SDS011;27734;47.028;28.820;2022-12-11T14:46:33;34.77;;;17.00;;
42066;SDS011;27734;47.028;28.820;2022-12-11T14:49:10;35.70;;;17.07;;
42066;SDS011;27734;47.028;28.820;2022-12-11T14:51:50;34.30;;;16.07;;
42066;SDS011;27734;47.028;28.820;2022-12-11T14:54:27;38.10;;;16.63;;
42066;SDS011;27734;47.028;28.820;2022-12-11T14:57:02;40.77;;;16.80;;
42066;SDS011;27734;47.028;28.820;2022-12-11T14:59:36;40.98;;;17.65;;
42066;SDS011;27734;47.028;28.820;2022-12-11T15:02:22;41.20;;;17.87;;
42066;SDS011;27734;47.028;28.820;2022-12-11T15:07:30;41.70;;;17.33;;
42066;SDS011;27734;47.028;28.820;2022-12-11T15:10:02;42.53;;;18.30;;
42066;SDS011;27734;47.028;28.820;2022-12-11T15:12:34;44.13;;;19.43;;